K4MR

Melrose Gunnery Range Airport

New Mexico, USA
METAR K4MR 110158Z AUTO 22011KT 10SM CLR 04/M02 A3025 RMK AO2 SLP265 T00391023 TSNO $
Observed Flight Rules
Dec-11 @ 01:58 UTC (an hour ago) Visual Flight Rules
Wind Visibility Clouds
220° at 11 knots 10 miles
  • Clear skies
Temperatures Readings
Current 4°C / 39°F
Dewpoint -2°C / 28°F
Humidity 65%
Altimeter 30.25" Hg
Pressure 1026.5 hPa
Elevation 1326
METAR K4MR 110158Z AUTO 22011KT 10SM CLR 04/M02 A3025 RMK AO2 SLP265 T00391023 TSNO $
Observed Flight Rules
Dec-11 @ 01:58 UTC
(an hour ago)
VFR
Wind Visibility
220° at 11 knots 10 miles
Clouds
  • Clear skies
Temperature Dewpoint
4°C / 39°F -2°C / 28°F
Humidity Altimeter Pressure
65% 30.25" Hg 1026.5 hPa